Terminal Aerodrome Forecast
Issued by NWS

Home | Current Version | Previous Version | Text Only | Print | Product List | Glossary On
Versions: 1 2 3 4 5 6 7 8 9 10 11 12 13 14 15 16 17 18 19 20 21 22 23 24 25 26
000
FTUS43 KEAX 171900 AAA
TAFSTJ
TAF AMD
KSTJ 171900Z 1719/1818 VRB04KT P6SM OVC016
     FM180200 09007KT 4SM BR OVC010
     FM180600 09005KT 2SM BR OVC008
     FM181400 12008KT P6SM SCT020=

USA.gov is the U.S. government's official web portal to all federal, state and local government web resources and services.